sensor_id;sensor_type;location;lat;lon;timestamp;pressure;altitude;pressure_sealevel;temperature
73685;BMP280;61985;51.070;14.064;2023-06-10T00:00:37;98510.34;;;17.54
73685;BMP280;61985;51.070;14.064;2023-06-10T00:03:03;98508.66;;;17.57
73685;BMP280;61985;51.070;14.064;2023-06-10T00:05:28;98509.06;;;17.50
73685;BMP280;61985;51.070;14.064;2023-06-10T00:07:56;98515.59;;;17.38
73685;BMP280;61985;51.070;14.064;2023-06-10T00:10:23;98516.75;;;17.31
73685;BMP280;61985;51.070;14.064;2023-06-10T00:12:49;98530.06;;;17.44
73685;BMP280;61985;51.070;14.064;2023-06-10T00:15:14;98528.81;;;17.45
73685;BMP280;61985;51.070;14.064;2023-06-10T00:17:40;98533.19;;;17.37
73685;BMP280;61985;51.070;14.064;2023-06-10T00:20:09;98532.88;;;17.34
73685;BMP280;61985;51.070;14.064;2023-06-10T00:22:37;98536.91;;;17.39
73685;BMP280;61985;51.070;14.064;2023-06-10T00:25:04;98541.34;;;17.37
73685;BMP280;61985;51.070;14.064;2023-06-10T00:27:30;98553.09;;;17.43
73685;BMP280;61985;51.070;14.064;2023-06-10T00:30:03;98566.00;;;17.48
73685;BMP280;61985;51.070;14.064;2023-06-10T00:32:30;98556.34;;;17.47
73685;BMP280;61985;51.070;14.064;2023-06-10T00:34:56;98568.50;;;17.31
73685;BMP280;61985;51.070;14.064;2023-06-10T00:37:21;98569.72;;;17.30
73685;BMP280;61985;51.070;14.064;2023-06-10T00:39:47;98569.13;;;17.41
73685;BMP280;61985;51.070;14.064;2023-06-10T00:42:12;98572.69;;;17.47
73685;BMP280;61985;51.070;14.064;2023-06-10T00:44:38;98575.88;;;17.45
73685;BMP280;61985;51.070;14.064;2023-06-10T00:47:03;98578.94;;;17.32
73685;BMP280;61985;51.070;14.064;2023-06-10T00:49:29;98578.19;;;17.32
73685;BMP280;61985;51.070;14.064;2023-06-10T00:51:54;98589.97;;;17.44
73685;BMP280;61985;51.070;14.064;2023-06-10T00:54:20;98586.50;;;17.43
73685;BMP280;61985;51.070;14.064;2023-06-10T00:56:46;98578.53;;;17.40
73685;BMP280;61985;51.070;14.064;2023-06-10T00:59:12;98590.25;;;17.46
73685;BMP280;61985;51.070;14.064;2023-06-10T01:01:39;98582.38;;;17.48
73685;BMP280;61985;51.070;14.064;2023-06-10T01:04:04;98582.75;;;17.41
73685;BMP280;61985;51.070;14.064;2023-06-10T01:09:09;98586.16;;;17.35
73685;BMP280;61985;51.070;14.064;2023-06-10T01:11:44;98590.88;;;17.20
73685;BMP280;61985;51.070;14.064;2023-06-10T01:14:12;98586.28;;;17.26
73685;BMP280;61985;51.070;14.064;2023-06-10T01:16:39;98596.88;;;17.24
73685;BMP280;61985;51.070;14.064;2023-06-10T01:19:06;98590.38;;;17.37
73685;BMP280;61985;51.070;14.064;2023-06-10T01:21:32;98590.66;;;17.39
73685;BMP280;61985;51.070;14.064;2023-06-10T01:23:58;98598.50;;;17.16
73685;BMP280;61985;51.070;14.064;2023-06-10T01:26:30;98587.28;;;17.29
73685;BMP280;61985;51.070;14.064;2023-06-10T01:29:04;98589.59;;;17.36
73685;BMP280;61985;51.070;14.064;2023-06-10T01:34:00;98589.09;;;17.32
73685;BMP280;61985;51.070;14.064;2023-06-10T01:36:28;98586.38;;;17.32
73685;BMP280;61985;51.070;14.064;2023-06-10T01:38:55;98580.97;;;17.38
73685;BMP280;61985;51.070;14.064;2023-06-10T01:41:20;98583.78;;;17.43
73685;BMP280;61985;51.070;14.064;2023-06-10T01:43:47;98575.47;;;17.52
73685;BMP280;61985;51.070;14.064;2023-06-10T01:46:13;98588.56;;;17.48
73685;BMP280;61985;51.070;14.064;2023-06-10T01:48:39;98590.44;;;17.42
73685;BMP280;61985;51.070;14.064;2023-06-10T01:51:05;98592.75;;;17.49
73685;BMP280;61985;51.070;14.064;2023-06-10T01:53:30;98596.44;;;17.11
73685;BMP280;61985;51.070;14.064;2023-06-10T01:55:56;98603.59;;;17.08
73685;BMP280;61985;51.070;14.064;2023-06-10T01:58:21;98597.53;;;17.19
73685;BMP280;61985;51.070;14.064;2023-06-10T02:00:47;98599.31;;;17.22
73685;BMP280;61985;51.070;14.064;2023-06-10T02:03:12;98611.34;;;17.30
73685;BMP280;61985;51.070;14.064;2023-06-10T02:05:37;98603.44;;;17.32
73685;BMP280;61985;51.070;14.064;2023-06-10T02:08:03;98613.50;;;17.26
73685;BMP280;61985;51.070;14.064;2023-06-10T02:10:28;98604.31;;;17.24
73685;BMP280;61985;51.070;14.064;2023-06-10T02:12:54;98614.38;;;17.18
73685;BMP280;61985;51.070;14.064;2023-06-10T02:15:20;98614.53;;;17.14
73685;BMP280;61985;51.070;14.064;2023-06-10T02:17:45;98611.41;;;16.86
73685;BMP280;61985;51.070;14.064;2023-06-10T02:20:11;98612.19;;;16.71
73685;BMP280;61985;51.070;14.064;2023-06-10T02:22:37;98612.06;;;16.66
73685;BMP280;61985;51.070;14.064;2023-06-10T02:25:03;98608.13;;;16.67
73685;BMP280;61985;51.070;14.064;2023-06-10T02:27:29;98608.13;;;16.82
73685;BMP280;61985;51.070;14.064;2023-06-10T02:29:55;98599.84;;;16.46
73685;BMP280;61985;51.070;14.064;2023-06-10T02:32:21;98605.34;;;16.37
73685;BMP280;61985;51.070;14.064;2023-06-10T02:34:46;98605.44;;;16.28
73685;BMP280;61985;51.070;14.064;2023-06-10T02:37:12;98609.41;;;16.27
73685;BMP280;61985;51.070;14.064;2023-06-10T02:39:38;98603.94;;;16.27
73685;BMP280;61985;51.070;14.064;2023-06-10T02:42:03;98604.88;;;16.24
73685;BMP280;61985;51.070;14.064;2023-06-10T02:44:29;98606.66;;;16.27
73685;BMP280;61985;51.070;14.064;2023-06-10T02:46:54;98605.34;;;16.22
73685;BMP280;61985;51.070;14.064;2023-06-10T02:49:19;98611.59;;;16.14
73685;BMP280;61985;51.070;14.064;2023-06-10T02:51:45;98613.31;;;16.26
73685;BMP280;61985;51.070;14.064;2023-06-10T02:54:10;98608.44;;;16.30
73685;BMP280;61985;51.070;14.064;2023-06-10T02:56:35;98606.97;;;16.29
73685;BMP280;61985;51.070;14.064;2023-06-10T02:59:01;98604.41;;;16.25
73685;BMP280;61985;51.070;14.064;2023-06-10T03:01:27;98611.56;;;16.38
73685;BMP280;61985;51.070;14.064;2023-06-10T03:03:53;98600.13;;;16.34
73685;BMP280;61985;51.070;14.064;2023-06-10T03:06:18;98615.84;;;16.29
73685;BMP280;61985;51.070;14.064;2023-06-10T03:08:44;98604.69;;;16.27
73685;BMP280;61985;51.070;14.064;2023-06-10T03:11:11;98606.56;;;16.21
73685;BMP280;61985;51.070;14.064;2023-06-10T03:13:36;98614.84;;;16.27
73685;BMP280;61985;51.070;14.064;2023-06-10T03:16:01;98618.97;;;16.37
73685;BMP280;61985;51.070;14.064;2023-06-10T03:18:28;98614.75;;;16.36
73685;BMP280;61985;51.070;14.064;2023-06-10T03:20:56;98605.28;;;16.46
73685;BMP280;61985;51.070;14.064;2023-06-10T03:23:23;98609.03;;;16.49
73685;BMP280;61985;51.070;14.064;2023-06-10T03:25:48;98611.38;;;16.41
73685;BMP280;61985;51.070;14.064;2023-06-10T03:28:14;98611.44;;;16.32
73685;BMP280;61985;51.070;14.064;2023-06-10T03:30:39;98610.47;;;16.20
73685;BMP280;61985;51.070;14.064;2023-06-10T03:33:04;98617.63;;;16.18
73685;BMP280;61985;51.070;14.064;2023-06-10T03:35:30;98620.34;;;16.18
73685;BMP280;61985;51.070;14.064;2023-06-10T03:37:57;98622.88;;;16.21
73685;BMP280;61985;51.070;14.064;2023-06-10T03:40:22;98628.66;;;16.14
73685;BMP280;61985;51.070;14.064;2023-06-10T03:42:48;98619.16;;;16.09
73685;BMP280;61985;51.070;14.064;2023-06-10T03:45:13;98619.09;;;16.19
73685;BMP280;61985;51.070;14.064;2023-06-10T03:47:39;98621.19;;;16.24
73685;BMP280;61985;51.070;14.064;2023-06-10T03:50:06;98619.31;;;16.30
73685;BMP280;61985;51.070;14.064;2023-06-10T03:52:33;98627.78;;;16.32
73685;BMP280;61985;51.070;14.064;2023-06-10T03:54:59;98629.97;;;16.19
73685;BMP280;61985;51.070;14.064;2023-06-10T03:57:24;98629.16;;;16.27
73685;BMP280;61985;51.070;14.064;2023-06-10T03:59:49;98639.38;;;16.33
73685;BMP280;61985;51.070;14.064;2023-06-10T04:02:15;98638.38;;;16.45
73685;BMP280;61985;51.070;14.064;2023-06-10T04:04:41;98638.50;;;16.50
73685;BMP280;61985;51.070;14.064;2023-06-10T04:07:06;98640.38;;;16.44
73685;BMP280;61985;51.070;14.064;2023-06-10T04:09:33;98642.53;;;16.55
73685;BMP280;61985;51.070;14.064;2023-06-10T04:11:58;98644.78;;;16.57
73685;BMP280;61985;51.070;14.064;2023-06-10T04:14:24;98646.94;;;16.67
73685;BMP280;61985;51.070;14.064;2023-06-10T04:16:49;98650.41;;;16.68
73685;BMP280;61985;51.070;14.064;2023-06-10T04:19:15;98651.19;;;16.68
73685;BMP280;61985;51.070;14.064;2023-06-10T04:21:41;98646.56;;;16.89
73685;BMP280;61985;51.070;14.064;2023-06-10T04:24:07;98654.00;;;17.04
73685;BMP280;61985;51.070;14.064;2023-06-10T04:26:32;98652.19;;;17.16
73685;BMP280;61985;51.070;14.064;2023-06-10T04:28:58;98655.19;;;17.32
73685;BMP280;61985;51.070;14.064;2023-06-10T04:31:24;98643.81;;;17.49
73685;BMP280;61985;51.070;14.064;2023-06-10T04:33:49;98639.34;;;17.51
73685;BMP280;61985;51.070;14.064;2023-06-10T04:36:14;98649.19;;;17.64
73685;BMP280;61985;51.070;14.064;2023-06-10T04:38:40;98647.09;;;17.73
73685;BMP280;61985;51.070;14.064;2023-06-10T04:41:06;98648.59;;;17.95
73685;BMP280;61985;51.070;14.064;2023-06-10T04:43:31;98642.81;;;17.87
73685;BMP280;61985;51.070;14.064;2023-06-10T04:45:57;98643.94;;;18.22
73685;BMP280;61985;51.070;14.064;2023-06-10T04:48:22;98651.16;;;18.25
73685;BMP280;61985;51.070;14.064;2023-06-10T04:50:49;98653.50;;;18.32
73685;BMP280;61985;51.070;14.064;2023-06-10T04:53:15;98651.56;;;18.38
73685;BMP280;61985;51.070;14.064;2023-06-10T04:55:41;98662.28;;;18.42
73685;BMP280;61985;51.070;14.064;2023-06-10T04:58:06;98664.94;;;18.36
73685;BMP280;61985;51.070;14.064;2023-06-10T05:00:32;98661.66;;;18.58
73685;BMP280;61985;51.070;14.064;2023-06-10T05:02:57;98670.03;;;18.75
73685;BMP280;61985;51.070;14.064;2023-06-10T05:05:22;98664.06;;;18.76
73685;BMP280;61985;51.070;14.064;2023-06-10T05:07:48;98656.38;;;18.75
73685;BMP280;61985;51.070;14.064;2023-06-10T05:10:13;98666.78;;;19.02
73685;BMP280;61985;51.070;14.064;2023-06-10T05:12:39;98665.31;;;19.07
73685;BMP280;61985;51.070;14.064;2023-06-10T05:15:06;98668.41;;;19.20
73685;BMP280;61985;51.070;14.064;2023-06-10T05:17:31;98667.00;;;19.31
73685;BMP280;61985;51.070;14.064;2023-06-10T05:19:57;98659.56;;;19.37
73685;BMP280;61985;51.070;14.064;2023-06-10T05:22:22;98667.94;;;19.22
73685;BMP280;61985;51.070;14.064;2023-06-10T05:24:50;98661.84;;;19.07
73685;BMP280;61985;51.070;14.064;2023-06-10T05:27:16;98665.78;;;19.06
73685;BMP280;61985;51.070;14.064;2023-06-10T05:29:41;98663.06;;;19.06
73685;BMP280;61985;51.070;14.064;2023-06-10T05:32:07;98669.38;;;19.17
73685;BMP280;61985;51.070;14.064;2023-06-10T05:34:32;98668.09;;;19.13
73685;BMP280;61985;51.070;14.064;2023-06-10T05:36:58;98663.22;;;19.28
73685;BMP280;61985;51.070;14.064;2023-06-10T05:39:23;98666.28;;;19.36
73685;BMP280;61985;51.070;14.064;2023-06-10T05:41:48;98664.25;;;19.36
73685;BMP280;61985;51.070;14.064;2023-06-10T05:44:14;98661.88;;;19.50
73685;BMP280;61985;51.070;14.064;2023-06-10T05:46:39;98671.13;;;19.58
73685;BMP280;61985;51.070;14.064;2023-06-10T05:49:04;98664.50;;;19.76
73685;BMP280;61985;51.070;14.064;2023-06-10T05:51:30;98669.53;;;20.00
73685;BMP280;61985;51.070;14.064;2023-06-10T05:53:55;98671.13;;;20.23
73685;BMP280;61985;51.070;14.064;2023-06-10T05:56:22;98662.19;;;20.28
73685;BMP280;61985;51.070;14.064;2023-06-10T05:58:48;98674.19;;;20.59
73685;BMP280;61985;51.070;14.064;2023-06-10T06:01:14;98669.69;;;20.56
73685;BMP280;61985;51.070;14.064;2023-06-10T06:03:39;98663.47;;;20.56
73685;BMP280;61985;51.070;14.064;2023-06-10T06:06:05;98674.63;;;20.52
73685;BMP280;61985;51.070;14.064;2023-06-10T06:08:30;98668.91;;;20.39
73685;BMP280;61985;51.070;14.064;2023-06-10T06:10:56;98673.16;;;20.51
73685;BMP280;61985;51.070;14.064;2023-06-10T06:13:21;98674.19;;;20.65
73685;BMP280;61985;51.070;14.064;2023-06-10T06:15:47;98671.69;;;20.72
73685;BMP280;61985;51.070;14.064;2023-06-10T06:18:12;98683.88;;;20.60
73685;BMP280;61985;51.070;14.064;2023-06-10T06:20:38;98679.41;;;20.57
73685;BMP280;61985;51.070;14.064;2023-06-10T06:23:04;98675.66;;;20.55
73685;BMP280;61985;51.070;14.064;2023-06-10T06:25:29;98676.16;;;20.42
73685;BMP280;61985;51.070;14.064;2023-06-10T06:27:54;98680.38;;;20.48
73685;BMP280;61985;51.070;14.064;2023-06-10T06:30:20;98682.41;;;20.65
73685;BMP280;61985;51.070;14.064;2023-06-10T06:32:45;98684.41;;;20.76
73685;BMP280;61985;51.070;14.064;2023-06-10T06:35:10;98688.59;;;20.77
73685;BMP280;61985;51.070;14.064;2023-06-10T06:37:36;98682.66;;;20.84
73685;BMP280;61985;51.070;14.064;2023-06-10T06:40:05;98694.59;;;20.86
73685;BMP280;61985;51.070;14.064;2023-06-10T06:42:31;98690.63;;;20.93
73685;BMP280;61985;51.070;14.064;2023-06-10T06:44:56;98685.13;;;21.27
73685;BMP280;61985;51.070;14.064;2023-06-10T06:47:22;98694.56;;;21.26
73685;BMP280;61985;51.070;14.064;2023-06-10T06:49:57;98696.03;;;21.38
73685;BMP280;61985;51.070;14.064;2023-06-10T06:52:23;98700.25;;;21.45
73685;BMP280;61985;51.070;14.064;2023-06-10T06:54:51;98702.53;;;21.35
73685;BMP280;61985;51.070;14.064;2023-06-10T06:57:16;98703.50;;;21.32
73685;BMP280;61985;51.070;14.064;2023-06-10T06:59:42;98706.78;;;21.02
73685;BMP280;61985;51.070;14.064;2023-06-10T07:02:07;98713.75;;;21.14
73685;BMP280;61985;51.070;14.064;2023-06-10T07:04:33;98718.75;;;21.16
73685;BMP280;61985;51.070;14.064;2023-06-10T07:07:04;98722.19;;;21.28
73685;BMP280;61985;51.070;14.064;2023-06-10T07:33:35;98734.81;;;21.76
73685;BMP280;61985;51.070;14.064;2023-06-10T07:36:02;98737.97;;;21.97
73685;BMP280;61985;51.070;14.064;2023-06-10T07:38:27;98739.41;;;22.15
73685;BMP280;61985;51.070;14.064;2023-06-10T10:27:04;98763.75;;;24.56
73685;BMP280;61985;51.070;14.064;2023-06-10T10:29:39;98769.53;;;24.72
73685;BMP280;61985;51.070;14.064;2023-06-10T10:32:06;98757.59;;;24.96
73685;BMP280;61985;51.070;14.064;2023-06-10T10:37:06;98756.16;;;25.48
73685;BMP280;61985;51.070;14.064;2023-06-10T10:39:33;98760.63;;;25.24
73685;BMP280;61985;51.070;14.064;2023-06-10T10:41:59;98761.66;;;25.21
73685;BMP280;61985;51.070;14.064;2023-06-10T10:44:26;98758.47;;;25.44
73685;BMP280;61985;51.070;14.064;2023-06-10T10:46:51;98757.13;;;25.50
73685;BMP280;61985;51.070;14.064;2023-06-10T10:49:20;98769.41;;;25.49
73685;BMP280;61985;51.070;14.064;2023-06-10T10:51:58;98756.34;;;25.50
73685;BMP280;61985;51.070;14.064;2023-06-10T10:54:32;98763.38;;;25.51
73685;BMP280;61985;51.070;14.064;2023-06-10T10:57:14;98750.84;;;25.50
73685;BMP280;61985;51.070;14.064;2023-06-10T10:59:58;98751.75;;;25.92
73685;BMP280;61985;51.070;14.064;2023-06-10T11:05:04;98752.19;;;25.96
73685;BMP280;61985;51.070;14.064;2023-06-10T11:07:31;98750.78;;;26.24
73685;BMP280;61985;51.070;14.064;2023-06-10T11:10:12;98740.47;;;26.45
73685;BMP280;61985;51.070;14.064;2023-06-10T11:12:53;98747.22;;;26.16
73685;BMP280;61985;51.070;14.064;2023-06-10T11:15:22;98757.47;;;26.50
73685;BMP280;61985;51.070;14.064;2023-06-10T11:23:34;98747.22;;;26.58
73685;BMP280;61985;51.070;14.064;2023-06-10T11:31:23;98756.81;;;26.57
73685;BMP280;61985;51.070;14.064;2023-06-10T11:33:54;98733.75;;;26.75
73685;BMP280;61985;51.070;14.064;2023-06-10T11:36:25;98750.66;;;26.72
73685;BMP280;61985;51.070;14.064;2023-06-10T11:39:01;98733.16;;;26.98
73685;BMP280;61985;51.070;14.064;2023-06-10T11:41:28;98731.81;;;27.20
73685;BMP280;61985;51.070;14.064;2023-06-10T11:44:01;98734.38;;;27.18
73685;BMP280;61985;51.070;14.064;2023-06-10T11:46:27;98729.88;;;27.07
73685;BMP280;61985;51.070;14.064;2023-06-10T11:48:57;98721.91;;;27.24
73685;BMP280;61985;51.070;14.064;2023-06-10T11:51:32;98733.22;;;27.13
73685;BMP280;61985;51.070;14.064;2023-06-10T11:53:57;98738.59;;;27.11
73685;BMP280;61985;51.070;14.064;2023-06-10T11:56:26;98745.72;;;27.06
73685;BMP280;61985;51.070;14.064;2023-06-10T11:58:57;98730.78;;;27.02
73685;BMP280;61985;51.070;14.064;2023-06-10T12:01:25;98723.38;;;26.97
73685;BMP280;61985;51.070;14.064;2023-06-10T12:04:08;98740.75;;;26.76
73685;BMP280;61985;51.070;14.064;2023-06-10T12:06:45;98734.44;;;26.26
73685;BMP280;61985;51.070;14.064;2023-06-10T12:11:49;98736.03;;;26.84
73685;BMP280;61985;51.070;14.064;2023-06-10T12:14:15;98727.81;;;27.28
73685;BMP280;61985;51.070;14.064;2023-06-10T12:16:40;98738.41;;;27.09
73685;BMP280;61985;51.070;14.064;2023-06-10T12:19:13;98726.34;;;26.28
73685;BMP280;61985;51.070;14.064;2023-06-10T12:21:38;98723.28;;;26.81
73685;BMP280;61985;51.070;14.064;2023-06-10T12:24:11;98738.75;;;27.13
73685;BMP280;61985;51.070;14.064;2023-06-10T12:26:41;98717.75;;;26.81
73685;BMP280;61985;51.070;14.064;2023-06-10T12:34:19;98712.81;;;26.87
73685;BMP280;61985;51.070;14.064;2023-06-10T12:36:48;98709.91;;;27.29
73685;BMP280;61985;51.070;14.064;2023-06-10T12:39:14;98710.69;;;27.38
73685;BMP280;61985;51.070;14.064;2023-06-10T12:41:39;98717.03;;;27.61
73685;BMP280;61985;51.070;14.064;2023-06-10T12:44:05;98707.13;;;27.22
73685;BMP280;61985;51.070;14.064;2023-06-10T12:46:37;98704.31;;;27.14
73685;BMP280;61985;51.070;14.064;2023-06-10T12:49:02;98701.38;;;27.71
73685;BMP280;61985;51.070;14.064;2023-06-10T12:51:27;98715.69;;;28.21
73685;BMP280;61985;51.070;14.064;2023-06-10T12:53:53;98705.53;;;28.01
73685;BMP280;61985;51.070;14.064;2023-06-10T12:56:18;98713.91;;;27.57
73685;BMP280;61985;51.070;14.064;2023-06-10T12:58:43;98700.81;;;27.65
73685;BMP280;61985;51.070;14.064;2023-06-10T13:01:09;98693.44;;;27.60
73685;BMP280;61985;51.070;14.064;2023-06-10T13:03:34;98690.50;;;27.73
73685;BMP280;61985;51.070;14.064;2023-06-10T13:06:00;98685.38;;;27.93
73685;BMP280;61985;51.070;14.064;2023-06-10T13:08:25;98685.41;;;28.23
73685;BMP280;61985;51.070;14.064;2023-06-10T13:10:50;98683.72;;;27.97
73685;BMP280;61985;51.070;14.064;2023-06-10T13:13:15;98684.25;;;27.80
73685;BMP280;61985;51.070;14.064;2023-06-10T13:15:41;98688.53;;;28.12
73685;BMP280;61985;51.070;14.064;2023-06-10T13:18:06;98693.88;;;28.02
73685;BMP280;61985;51.070;14.064;2023-06-10T13:20:32;98690.19;;;27.92
73685;BMP280;61985;51.070;14.064;2023-06-10T13:22:57;98693.03;;;27.56
73685;BMP280;61985;51.070;14.064;2023-06-10T13:25:23;98709.84;;;27.66
73685;BMP280;61985;51.070;14.064;2023-06-10T13:27:48;98689.56;;;27.63
73685;BMP280;61985;51.070;14.064;2023-06-10T13:30:13;98691.47;;;27.99
73685;BMP280;61985;51.070;14.064;2023-06-10T13:32:39;98694.06;;;27.97
73685;BMP280;61985;51.070;14.064;2023-06-10T13:35:05;98691.09;;;27.95
73685;BMP280;61985;51.070;14.064;2023-06-10T13:37:30;98686.44;;;27.74
73685;BMP280;61985;51.070;14.064;2023-06-10T13:39:55;98683.50;;;27.72
73685;BMP280;61985;51.070;14.064;2023-06-10T13:42:21;98697.22;;;28.16
73685;BMP280;61985;51.070;14.064;2023-06-10T13:44:47;98683.19;;;28.37
73685;BMP280;61985;51.070;14.064;2023-06-10T13:47:14;98693.53;;;28.37
73685;BMP280;61985;51.070;14.064;2023-06-10T13:49:39;98692.06;;;28.05
73685;BMP280;61985;51.070;14.064;2023-06-10T13:52:05;98697.41;;;27.95
73685;BMP280;61985;51.070;14.064;2023-06-10T13:54:31;98705.13;;;27.81
73685;BMP280;61985;51.070;14.064;2023-06-10T13:56:56;98681.13;;;27.99
73685;BMP280;61985;51.070;14.064;2023-06-10T13:59:22;98686.31;;;27.88
73685;BMP280;61985;51.070;14.064;2023-06-10T14:01:47;98675.59;;;27.92
73685;BMP280;61985;51.070;14.064;2023-06-10T14:04:13;98692.78;;;28.44
73685;BMP280;61985;51.070;14.064;2023-06-10T14:06:38;98680.25;;;28.35
73685;BMP280;61985;51.070;14.064;2023-06-10T14:09:04;98689.47;;;28.38
73685;BMP280;61985;51.070;14.064;2023-06-10T14:11:30;98686.34;;;28.11
73685;BMP280;61985;51.070;14.064;2023-06-10T14:13:56;98685.97;;;28.30
73685;BMP280;61985;51.070;14.064;2023-06-10T14:16:22;98683.91;;;28.53
73685;BMP280;61985;51.070;14.064;2023-06-10T14:18:48;98690.75;;;27.91
73685;BMP280;61985;51.070;14.064;2023-06-10T14:21:15;98684.28;;;27.88
73685;BMP280;61985;51.070;14.064;2023-06-10T14:23:40;98686.91;;;28.01
73685;BMP280;61985;51.070;14.064;2023-06-10T14:26:06;98684.50;;;28.36
73685;BMP280;61985;51.070;14.064;2023-06-10T14:28:32;98675.03;;;28.01
73685;BMP280;61985;51.070;14.064;2023-06-10T14:30:58;98694.06;;;28.58
73685;BMP280;61985;51.070;14.064;2023-06-10T14:33:23;98674.88;;;28.14
73685;BMP280;61985;51.070;14.064;2023-06-10T14:35:49;98675.81;;;28.01
73685;BMP280;61985;51.070;14.064;2023-06-10T14:38:16;98674.09;;;27.75
73685;BMP280;61985;51.070;14.064;2023-06-10T14:40:42;98678.56;;;28.01
73685;BMP280;61985;51.070;14.064;2023-06-10T14:43:07;98684.88;;;28.33
73685;BMP280;61985;51.070;14.064;2023-06-10T14:45:39;98680.41;;;28.07
73685;BMP280;61985;51.070;14.064;2023-06-10T14:48:06;98685.22;;;28.60
73685;BMP280;61985;51.070;14.064;2023-06-10T14:50:32;98674.47;;;28.56
73685;BMP280;61985;51.070;14.064;2023-06-10T14:52:58;98682.16;;;28.96
73685;BMP280;61985;51.070;14.064;2023-06-10T14:55:24;98678.56;;;28.55
73685;BMP280;61985;51.070;14.064;2023-06-10T14:57:49;98677.22;;;28.79
73685;BMP280;61985;51.070;14.064;2023-06-10T15:00:15;98669.19;;;29.06
73685;BMP280;61985;51.070;14.064;2023-06-10T15:02:44;98675.53;;;28.91
73685;BMP280;61985;51.070;14.064;2023-06-10T15:05:10;98674.78;;;28.91
73685;BMP280;61985;51.070;14.064;2023-06-10T15:07:35;98673.91;;;28.65
73685;BMP280;61985;51.070;14.064;2023-06-10T15:10:00;98677.09;;;28.23
73685;BMP280;61985;51.070;14.064;2023-06-10T15:12:26;98669.34;;;28.30
73685;BMP280;61985;51.070;14.064;2023-06-10T15:14:53;98683.19;;;28.22
73685;BMP280;61985;51.070;14.064;2023-06-10T15:17:18;98681.13;;;27.99
73685;BMP280;61985;51.070;14.064;2023-06-10T15:19:43;98695.56;;;28.44
73685;BMP280;61985;51.070;14.064;2023-06-10T15:22:09;98687.56;;;28.86
73685;BMP280;61985;51.070;14.064;2023-06-10T15:24:36;98674.47;;;28.64
73685;BMP280;61985;51.070;14.064;2023-06-10T15:27:02;98670.81;;;28.38
73685;BMP280;61985;51.070;14.064;2023-06-10T15:29:27;98671.00;;;28.48
73685;BMP280;61985;51.070;14.064;2023-06-10T15:31:53;98668.94;;;28.41
73685;BMP280;61985;51.070;14.064;2023-06-10T15:34:18;98666.03;;;28.23
73685;BMP280;61985;51.070;14.064;2023-06-10T15:36:43;98666.34;;;27.66
73685;BMP280;61985;51.070;14.064;2023-06-10T15:39:09;98665.03;;;27.75
73685;BMP280;61985;51.070;14.064;2023-06-10T15:41:34;98670.72;;;27.62
73685;BMP280;61985;51.070;14.064;2023-06-10T15:44:00;98666.81;;;27.49
73685;BMP280;61985;51.070;14.064;2023-06-10T15:46:29;98667.63;;;27.73
73685;BMP280;61985;51.070;14.064;2023-06-10T15:48:55;98678.56;;;28.09
73685;BMP280;61985;51.070;14.064;2023-06-10T15:51:20;98678.34;;;27.84
73685;BMP280;61985;51.070;14.064;2023-06-10T15:53:46;98671.44;;;27.47
73685;BMP280;61985;51.070;14.064;2023-06-10T15:56:12;98680.81;;;27.44
73685;BMP280;61985;51.070;14.064;2023-06-10T15:58:37;98660.75;;;27.51
73685;BMP280;61985;51.070;14.064;2023-06-10T16:01:03;98670.44;;;27.88
73685;BMP280;61985;51.070;14.064;2023-06-10T16:03:28;98668.56;;;27.83
73685;BMP280;61985;51.070;14.064;2023-06-10T16:05:53;98669.72;;;28.03
73685;BMP280;61985;51.070;14.064;2023-06-10T16:08:19;98676.91;;;28.06
73685;BMP280;61985;51.070;14.064;2023-06-10T16:10:44;98665.28;;;28.00
73685;BMP280;61985;51.070;14.064;2023-06-10T16:13:09;98675.59;;;27.99
73685;BMP280;61985;51.070;14.064;2023-06-10T16:15:35;98679.94;;;27.64
73685;BMP280;61985;51.070;14.064;2023-06-10T16:18:01;98669.13;;;27.81
73685;BMP280;61985;51.070;14.064;2023-06-10T16:20:26;98675.50;;;26.73
73685;BMP280;61985;51.070;14.064;2023-06-10T16:22:52;98676.13;;;26.58
73685;BMP280;61985;51.070;14.064;2023-06-10T16:25:17;98677.94;;;26.56
73685;BMP280;61985;51.070;14.064;2023-06-10T16:27:42;98677.97;;;26.14
73685;BMP280;61985;51.070;14.064;2023-06-10T16:30:08;98671.66;;;26.06
73685;BMP280;61985;51.070;14.064;2023-06-10T16:32:33;98669.56;;;25.85
73685;BMP280;61985;51.070;14.064;2023-06-10T16:34:59;98673.13;;;25.72
73685;BMP280;61985;51.070;14.064;2023-06-10T16:37:24;98676.75;;;25.67
73685;BMP280;61985;51.070;14.064;2023-06-10T16:39:50;98676.66;;;25.60
73685;BMP280;61985;51.070;14.064;2023-06-10T16:42:16;98668.16;;;25.58
73685;BMP280;61985;51.070;14.064;2023-06-10T16:44:41;98673.03;;;25.65
73685;BMP280;61985;51.070;14.064;2023-06-10T16:47:06;98673.84;;;25.73
73685;BMP280;61985;51.070;14.064;2023-06-10T16:49:32;98679.31;;;25.65
73685;BMP280;61985;51.070;14.064;2023-06-10T16:51:59;98679.31;;;25.65
73685;BMP280;61985;51.070;14.064;2023-06-10T16:54:24;98672.22;;;25.57
73685;BMP280;61985;51.070;14.064;2023-06-10T16:56:50;98684.44;;;25.35
73685;BMP280;61985;51.070;14.064;2023-06-10T16:59:16;98682.88;;;25.13
73685;BMP280;61985;51.070;14.064;2023-06-10T17:01:41;98691.78;;;24.92
73685;BMP280;61985;51.070;14.064;2023-06-10T17:04:07;98689.09;;;24.86
73685;BMP280;61985;51.070;14.064;2023-06-10T17:06:32;98696.66;;;25.13
73685;BMP280;61985;51.070;14.064;2023-06-10T17:08:57;98690.06;;;25.29
73685;BMP280;61985;51.070;14.064;2023-06-10T17:11:23;98699.72;;;25.36
73685;BMP280;61985;51.070;14.064;2023-06-10T17:13:49;98698.34;;;25.29
73685;BMP280;61985;51.070;14.064;2023-06-10T17:16:14;98707.06;;;25.20
73685;BMP280;61985;51.070;14.064;2023-06-10T17:18:40;98706.44;;;25.14
73685;BMP280;61985;51.070;14.064;2023-06-10T17:21:05;98706.94;;;25.12
73685;BMP280;61985;51.070;14.064;2023-06-10T17:23:31;98705.66;;;25.13
73685;BMP280;61985;51.070;14.064;2023-06-10T17:25:56;98708.41;;;25.13
73685;BMP280;61985;51.070;14.064;2023-06-10T17:28:22;98710.00;;;24.95
73685;BMP280;61985;51.070;14.064;2023-06-10T17:30:47;98712.53;;;24.93